Creighton, MO

5:53 PM CST on February 26, 2015 (GMT -0600)
Whiteman Air Force Base | Change Station
CLOSE
Current Station
Airport
Location: Whiteman AFB,
Elevation: 869 ft
Nearby Weather Stations

Elev 869 ft 38.73 °N, 93.55 °W | Updated 55 minutes ago

Partly Cloudy
Partly Cloudy
19 °F
Feels Like 6 °F
N
13
Wind Variable Wind from North

Today
High -- | Low -- °F
--% Chance of Precip.
Yesterday
High -- | Low -- °F
Precip. -- in
6:52 AM 6:06 PM
Waxing Gibbous, 63% visible
Pressure 30.48 in
Visibility 10.0 miles
Clouds Scattered Clouds 4000 ft
Windchill 6 °F
Dew Point 2 °F
Humidity 49%
Rainfall 0.00 in
Snow Depth Not available.
UV 0 out of 12
Pollen .50 out of 12
Air Quality Not available.
Flu Activity Not available.
METAR KSZL 262258Z 01011KT 10SM SCT040 M07/M17 A3042 RMK AO2A SLP319 T10741166 $

More Conditions Fewer Conditions

Pressure 30.48 in
Visibility 10.0 miles
Clouds Scattered Clouds 4000 ft
Windchill 6 °F
Dew Point 2 °F
Humidity 49%
Rainfall 0.00 in
Snow Depth Not available.
UV 0 out of 12
Pollen .50 out of 12
Air Quality Not available.
Flu Activity Not available.
METAR KSZL 262258Z 01011KT 10SM SCT040 M07/M17 A3042 RMK AO2A SLP319 T10741166 $

More Conditions Fewer Conditions

10-Day Weather Forecast

Almanac

Astronomy

Feb. 26, 2015 Rise Set
Actual Time
Civil Twilight
Nautical Twilight
Astronomical Twilight
Moon
Length of Visible Light
Length of Day
Tomorrow will be .
, % of the Moon is Illuminated

Today's Extremes

State Highs State Lows

Community

WunderPhotos

Upload Photos

1,800,529 photos uploaded!

WunderBlogs® & News

Nearby

Air Quality

  Air Quality AQ Index Pollutant
Not available.

Snow Depth

Station Depth Elevation

Earthquake Activity

City Distance Mag. Time & Date
Minimum magnitude displayed is 2.5.

Coastal Water Temperatures

Place Temperature

Nearby Weather Stations